createdAt,value
2022-12-08T00:01:15.042Z,-0.20
2022-12-08T00:04:19.714Z,-0.20
2022-12-08T00:07:42.499Z,-0.20
2022-12-08T00:10:49.427Z,-0.18
2022-12-08T00:13:55.821Z,-0.10
2022-12-08T00:17:02.705Z,-0.10
2022-12-08T00:20:10.658Z,-0.08
2022-12-08T00:23:15.177Z,0.00
2022-12-08T00:26:19.984Z,0.00
2022-12-08T00:29:24.811Z,0.00
2022-12-08T00:32:29.775Z,0.00
2022-12-08T00:35:38.737Z,0.00
2022-12-08T00:38:47.916Z,0.00
2022-12-08T00:42:11.085Z,0.02
2022-12-08T00:45:16.273Z,0.04
2022-12-08T00:48:20.958Z,0.08
2022-12-08T00:51:25.638Z,0.08
2022-12-08T00:54:31.033Z,0.10
2022-12-08T00:57:35.971Z,0.10
2022-12-08T01:00:43.264Z,0.10
2022-12-08T01:03:48.664Z,0.14
2022-12-08T01:06:53.616Z,0.20
2022-12-08T01:09:58.481Z,0.20
2022-12-08T01:13:03.146Z,0.20
2022-12-08T01:16:08.631Z,0.20
2022-12-08T01:19:16.746Z,0.20
2022-12-08T01:22:21.707Z,0.12
2022-12-08T01:25:26.239Z,0.10
2022-12-08T01:28:32.234Z,0.10
2022-12-08T01:31:36.936Z,0.00
2022-12-08T01:34:41.972Z,0.00
2022-12-08T01:37:46.804Z,0.00
2022-12-08T01:40:51.922Z,0.00
2022-12-08T01:44:03.419Z,-0.06
2022-12-08T01:47:08.562Z,-0.02
2022-12-08T01:50:19.516Z,-0.10
2022-12-08T01:53:29.882Z,-0.10
2022-12-08T01:56:42.935Z,-0.10
2022-12-08T01:59:53.187Z,-0.10
2022-12-08T02:03:03.332Z,-0.10
2022-12-08T02:06:08.830Z,-0.10
2022-12-08T02:09:15.258Z,-0.10
2022-12-08T02:12:20.259Z,-0.10
2022-12-08T02:15:38.697Z,-0.08
2022-12-08T02:19:29.692Z,-0.06
2022-12-08T02:22:39.846Z,-0.10
2022-12-08T02:26:14.474Z,-0.04
2022-12-08T02:29:52.657Z,0.00
2022-12-08T02:33:39.803Z,0.00
2022-12-08T02:36:58.756Z,0.00
2022-12-08T02:40:15.668Z,0.00
2022-12-08T02:43:33.827Z,0.00
2022-12-08T02:46:48.439Z,0.10
2022-12-08T02:49:54.461Z,0.10
2022-12-08T02:52:59.397Z,0.10
2022-12-08T02:56:22.911Z,0.20
2022-12-08T02:59:53.511Z,0.16
2022-12-08T03:03:17.253Z,0.10
2022-12-08T03:06:32.488Z,0.20
2022-12-08T03:09:46.424Z,0.20
2022-12-08T03:12:59.123Z,0.24
2022-12-08T03:16:09.350Z,0.30
2022-12-08T03:19:21.084Z,0.30
2022-12-08T03:22:28.910Z,0.30
2022-12-08T03:25:40.772Z,0.30
2022-12-08T03:28:46.501Z,0.40
2022-12-08T03:31:55.946Z,0.40
2022-12-08T03:35:08.056Z,0.40
2022-12-08T03:38:16.604Z,0.50
2022-12-08T03:41:22.567Z,0.54
2022-12-08T03:44:27.317Z,0.60
2022-12-08T03:47:32.121Z,0.60
2022-12-08T03:50:37.170Z,0.60
2022-12-08T03:53:41.784Z,0.60
2022-12-08T03:56:46.592Z,0.60
2022-12-08T03:59:51.559Z,0.60
2022-12-08T04:02:56.610Z,0.60
2022-12-08T04:06:01.350Z,0.60
2022-12-08T04:09:06.362Z,0.70
2022-12-08T04:12:10.898Z,0.70
2022-12-08T04:15:15.897Z,0.70
2022-12-08T04:18:20.461Z,0.70
2022-12-08T04:21:25.631Z,0.74
2022-12-08T04:24:30.623Z,0.80
2022-12-08T04:27:35.401Z,0.80
2022-12-08T04:30:40.524Z,0.90
2022-12-08T04:33:45.463Z,0.90
2022-12-08T04:36:50.036Z,1.00
2022-12-08T04:39:54.873Z,1.10
2022-12-08T04:42:59.651Z,1.10
2022-12-08T04:46:07.673Z,1.20
2022-12-08T04:49:12.595Z,1.20
2022-12-08T04:52:17.479Z,1.28
2022-12-08T04:55:22.333Z,1.30
2022-12-08T04:58:27.125Z,1.30
2022-12-08T05:01:32.175Z,1.40
2022-12-08T05:04:37.169Z,1.40
2022-12-08T05:07:41.758Z,1.40
2022-12-08T05:10:46.451Z,1.40
2022-12-08T05:13:51.243Z,1.40
2022-12-08T05:16:56.204Z,1.40
2022-12-08T05:20:00.990Z,1.40
2022-12-08T05:23:06.427Z,1.40
2022-12-08T05:26:11.157Z,1.40
2022-12-08T05:29:15.919Z,1.40
2022-12-08T05:32:20.699Z,1.40
2022-12-08T05:35:25.725Z,1.40
2022-12-08T05:38:30.256Z,1.46
2022-12-08T05:41:35.270Z,1.46
2022-12-08T05:44:40.087Z,1.50
2022-12-08T05:47:44.919Z,1.50
2022-12-08T05:50:51.034Z,1.50
2022-12-08T05:53:57.496Z,1.50
2022-12-08T05:57:02.441Z,1.60
2022-12-08T06:00:10.219Z,1.60
2022-12-08T06:03:16.637Z,1.60
2022-12-08T06:06:22.017Z,1.52
2022-12-08T06:09:27.109Z,1.60
2022-12-08T06:12:32.051Z,1.50
2022-12-08T06:15:37.071Z,1.50
2022-12-08T06:18:42.168Z,1.50
2022-12-08T06:21:47.848Z,1.50
2022-12-08T06:24:52.917Z,1.50
2022-12-08T06:27:57.447Z,1.50
2022-12-08T06:31:08.184Z,1.50
2022-12-08T06:34:12.644Z,1.50
2022-12-08T06:37:17.590Z,1.50
2022-12-08T06:40:22.276Z,1.50
2022-12-08T06:43:27.761Z,1.50
2022-12-08T06:46:32.645Z,1.50
2022-12-08T06:49:37.978Z,1.50
2022-12-08T06:52:53.030Z,1.44
2022-12-08T06:56:04.232Z,1.42
2022-12-08T06:59:09.749Z,1.40
2022-12-08T07:02:14.931Z,1.40
2022-12-08T07:05:19.818Z,1.40
2022-12-08T07:08:24.608Z,1.40
2022-12-08T07:11:29.424Z,1.40
2022-12-08T07:14:34.360Z,1.40
2022-12-08T07:17:39.304Z,1.40
2022-12-08T07:20:44.190Z,1.32
2022-12-08T07:23:54.198Z,1.30
2022-12-08T07:27:02.448Z,1.30
2022-12-08T07:30:11.129Z,1.30
2022-12-08T07:33:15.717Z,1.30
2022-12-08T07:36:21.445Z,1.30
2022-12-08T07:39:26.927Z,1.30
2022-12-08T07:42:31.798Z,1.30
2022-12-08T07:45:37.044Z,1.30
2022-12-08T07:48:41.661Z,1.30
2022-12-08T07:51:46.195Z,1.30
2022-12-08T07:54:50.765Z,1.34
2022-12-08T07:57:55.495Z,1.40
2022-12-08T08:01:00.270Z,1.50
2022-12-08T08:04:06.398Z,1.54
2022-12-08T08:07:11.440Z,1.60
2022-12-08T08:10:16.277Z,1.70
2022-12-08T08:13:20.798Z,1.80
2022-12-08T08:16:25.560Z,1.86
2022-12-08T08:19:30.777Z,1.90
2022-12-08T08:22:36.212Z,2.00
2022-12-08T08:25:40.742Z,2.10
2022-12-08T08:28:45.785Z,2.10
2022-12-08T08:31:50.685Z,2.20
2022-12-08T08:34:55.648Z,2.20
2022-12-08T08:38:00.493Z,2.30
2022-12-08T08:41:10.751Z,2.30
2022-12-08T08:44:16.138Z,2.30
2022-12-08T08:47:20.960Z,2.38
2022-12-08T08:50:26.623Z,2.40
2022-12-08T08:53:31.542Z,2.40
2022-12-08T08:56:36.098Z,2.40
2022-12-08T08:59:41.188Z,2.40
2022-12-08T09:02:45.742Z,2.40
2022-12-08T09:05:51.533Z,2.40
2022-12-08T09:08:56.333Z,2.42
2022-12-08T09:12:01.279Z,2.50
2022-12-08T09:15:07.829Z,2.50
2022-12-08T09:18:12.620Z,2.44
2022-12-08T09:21:21.819Z,2.50
2022-12-08T09:24:26.724Z,2.50
2022-12-08T09:27:32.049Z,2.48
2022-12-08T09:30:37.323Z,2.48
2022-12-08T09:33:42.758Z,2.46
2022-12-08T09:36:47.704Z,2.48
2022-12-08T09:39:52.740Z,2.50
2022-12-08T09:43:09.118Z,2.50
2022-12-08T09:46:18.214Z,2.50
2022-12-08T09:49:37.121Z,2.50
2022-12-08T09:52:51.213Z,2.50
2022-12-08T09:56:01.534Z,2.60
2022-12-08T09:59:22.664Z,2.70
2022-12-08T10:02:30.527Z,2.70
2022-12-08T10:05:44.837Z,2.70
2022-12-08T10:09:03.296Z,2.70
2022-12-08T10:12:19.866Z,2.80
2022-12-08T10:15:45.974Z,2.80
2022-12-08T10:19:00.086Z,2.90
2022-12-08T10:22:22.349Z,2.96
2022-12-08T10:25:36.183Z,3.00
2022-12-08T10:28:45.118Z,3.06
2022-12-08T10:31:50.486Z,3.10
2022-12-08T10:35:06.694Z,3.20
2022-12-08T10:38:22.035Z,3.30
2022-12-08T10:41:26.738Z,3.30
2022-12-08T10:44:31.374Z,3.40
2022-12-08T10:47:44.850Z,3.40
2022-12-08T10:50:57.575Z,3.40
2022-12-08T10:54:02.957Z,3.40
2022-12-08T10:57:20.172Z,3.40
2022-12-08T11:03:50.216Z,3.44
2022-12-08T11:06:55.563Z,3.46
2022-12-08T11:10:00.745Z,3.48
2022-12-08T11:13:13.360Z,3.50
2022-12-08T11:16:20.026Z,3.40
2022-12-08T11:19:28.823Z,3.40
2022-12-08T11:22:38.696Z,3.40
2022-12-08T11:25:42.583Z,3.40
2022-12-08T11:28:47.560Z,3.40
2022-12-08T11:31:59.569Z,3.40
2022-12-08T11:35:10.342Z,3.40
2022-12-08T11:38:22.180Z,3.32
2022-12-08T11:41:33.943Z,3.30
2022-12-08T11:44:49.307Z,3.30
2022-12-08T11:48:12.153Z,3.30
2022-12-08T11:51:22.414Z,3.30
2022-12-08T11:54:32.416Z,3.30
2022-12-08T11:57:37.163Z,3.30
2022-12-08T12:00:42.051Z,3.30
2022-12-08T12:03:59.085Z,3.30
2022-12-08T12:07:47.549Z,3.30
2022-12-08T12:11:33.980Z,3.24
2022-12-08T12:15:09.016Z,3.20
2022-12-08T12:18:26.022Z,3.12
2022-12-08T12:21:38.014Z,3.10
2022-12-08T12:24:48.327Z,3.10
2022-12-08T12:27:58.723Z,3.00
2022-12-08T12:31:09.921Z,3.00
2022-12-08T12:34:22.413Z,3.00
2022-12-08T12:37:37.357Z,2.90
2022-12-08T12:40:43.968Z,2.90
2022-12-08T12:44:40.724Z,2.80
2022-12-08T12:47:56.302Z,2.70
2022-12-08T12:51:21.985Z,2.70
2022-12-08T12:54:27.667Z,2.60
2022-12-08T12:57:40.034Z,2.60
2022-12-08T13:00:45.005Z,2.52
2022-12-08T13:04:04.313Z,2.50
2022-12-08T13:07:19.889Z,2.50
2022-12-08T13:10:29.140Z,2.40
2022-12-08T13:13:34.692Z,2.40
2022-12-08T13:16:40.523Z,2.38
2022-12-08T13:19:51.928Z,2.30
2022-12-08T13:23:41.583Z,2.30
2022-12-08T13:26:48.678Z,2.28
2022-12-08T13:30:43.800Z,2.20
2022-12-08T13:33:48.919Z,2.20
2022-12-08T13:37:08.889Z,2.14
2022-12-08T13:40:22.458Z,2.16
2022-12-08T13:43:55.569Z,2.10
2022-12-08T13:47:32.792Z,2.10
2022-12-08T13:51:23.605Z,2.10
2022-12-08T13:57:41.454Z,2.18
2022-12-08T14:01:00.157Z,2.20
2022-12-08T14:04:34.222Z,2.20
2022-12-08T14:07:31.222Z,2.20
2022-12-08T14:10:36.664Z,2.20
2022-12-08T14:13:42.015Z,2.20
2022-12-08T14:16:54.937Z,2.20
2022-12-08T14:20:02.222Z,2.20
2022-12-08T14:23:09.640Z,2.18
2022-12-08T14:26:14.773Z,2.18
2022-12-08T14:29:37.323Z,2.20
2022-12-08T14:32:48.445Z,2.20
2022-12-08T14:35:56.043Z,2.20
2022-12-08T14:39:00.958Z,2.20
2022-12-08T14:42:16.617Z,2.20
2022-12-08T14:45:22.287Z,2.20
2022-12-08T14:48:42.173Z,2.20
2022-12-08T14:51:45.873Z,2.24
2022-12-08T14:54:53.360Z,2.30
2022-12-08T14:57:57.989Z,2.20
2022-12-08T15:01:05.878Z,2.10
2022-12-08T15:04:19.927Z,2.00
2022-12-08T15:07:31.929Z,2.00
2022-12-08T15:10:39.468Z,1.90
2022-12-08T15:13:48.062Z,1.88
2022-12-08T15:16:53.789Z,1.80
2022-12-08T15:20:00.392Z,1.74
2022-12-08T15:23:05.604Z,1.70
2022-12-08T15:26:26.551Z,1.70
2022-12-08T15:29:31.970Z,1.62
2022-12-08T15:32:37.275Z,1.60
2022-12-08T15:35:42.478Z,1.60
2022-12-08T15:38:47.721Z,1.60
2022-12-08T15:41:52.964Z,1.58
2022-12-08T15:44:58.008Z,1.56
2022-12-08T15:48:02.824Z,1.56
2022-12-08T15:51:08.066Z,1.56
2022-12-08T15:54:12.917Z,1.60
2022-12-08T16:00:52.965Z,1.60
2022-12-08T16:07:29.668Z,1.60
2022-12-08T16:11:00.731Z,1.66
2022-12-08T16:14:23.276Z,1.70
2022-12-08T16:17:25.227Z,1.70
2022-12-08T16:21:05.458Z,1.70
2022-12-08T16:23:55.881Z,1.70
2022-12-08T16:27:58.665Z,1.60
2022-12-08T16:30:26.140Z,1.40
2022-12-08T16:33:31.198Z,1.30
2022-12-08T16:36:36.115Z,1.20
2022-12-08T16:39:45.629Z,1.10
2022-12-08T16:42:51.735Z,1.10
2022-12-08T16:45:56.632Z,1.00
2022-12-08T16:49:05.231Z,1.00
2022-12-08T16:52:10.522Z,1.00
2022-12-08T16:55:20.921Z,0.98
2022-12-08T16:58:25.918Z,0.94
2022-12-08T17:01:31.673Z,0.90
2022-12-08T17:04:36.588Z,0.90
2022-12-08T17:07:42.246Z,0.90
2022-12-08T17:11:06.754Z,0.90
2022-12-08T17:14:12.039Z,0.90
2022-12-08T17:17:16.673Z,0.86
2022-12-08T17:20:26.093Z,0.90
2022-12-08T17:23:31.010Z,0.90
2022-12-08T17:26:36.171Z,0.86
2022-12-08T17:29:41.112Z,0.90
2022-12-08T17:32:46.108Z,0.90
2022-12-08T17:35:53.467Z,0.90
2022-12-08T17:39:00.404Z,0.90
2022-12-08T17:42:06.688Z,0.98
2022-12-08T17:45:12.735Z,1.00
2022-12-08T17:48:17.559Z,1.00
2022-12-08T17:51:22.591Z,1.00
2022-12-08T17:54:29.277Z,1.04
2022-12-08T17:57:34.205Z,1.10
2022-12-08T18:00:39.218Z,1.10
2022-12-08T18:03:44.694Z,1.10
2022-12-08T18:06:50.074Z,1.10
2022-12-08T18:09:55.282Z,1.10
2022-12-08T18:13:03.381Z,1.14
2022-12-08T18:16:10.333Z,1.20
2022-12-08T18:19:16.869Z,1.20
2022-12-08T18:22:21.878Z,1.20
2022-12-08T18:25:26.832Z,1.20
2022-12-08T18:28:32.171Z,1.30
2022-12-08T18:31:37.246Z,1.30
2022-12-08T18:34:42.849Z,1.30
2022-12-08T18:37:47.795Z,1.30
2022-12-08T18:40:53.047Z,1.34
2022-12-08T18:43:58.207Z,1.40
2022-12-08T18:47:03.513Z,1.40
2022-12-08T18:50:12.345Z,1.40
2022-12-08T18:53:18.037Z,1.40
2022-12-08T18:56:26.764Z,1.50
2022-12-08T18:59:32.192Z,1.50
2022-12-08T19:02:38.179Z,1.50
2022-12-08T19:05:44.435Z,1.50
2022-12-08T19:08:50.250Z,1.50
2022-12-08T19:11:55.543Z,1.58
2022-12-08T19:15:00.654Z,1.56
2022-12-08T19:18:06.098Z,1.54
2022-12-08T19:21:12.195Z,1.50
2022-12-08T19:24:17.835Z,1.50
2022-12-08T19:27:23.072Z,1.50
2022-12-08T19:30:28.293Z,1.50
2022-12-08T19:33:33.986Z,1.60
2022-12-08T19:36:43.174Z,1.60
2022-12-08T19:40:06.316Z,1.60
2022-12-08T19:43:35.968Z,1.62
2022-12-08T19:46:41.350Z,1.70
2022-12-08T19:49:47.660Z,1.70
2022-12-08T19:52:55.360Z,1.70
2022-12-08T19:56:00.548Z,1.70
2022-12-08T19:59:05.486Z,1.70
2022-12-08T20:02:12.852Z,1.70
2022-12-08T20:05:18.119Z,1.70
2022-12-08T20:08:23.241Z,1.70
2022-12-08T20:11:27.921Z,1.70
2022-12-08T20:14:33.429Z,1.68
2022-12-08T20:17:38.571Z,1.62
2022-12-08T20:20:45.860Z,1.60
2022-12-08T20:23:51.550Z,1.60
2022-12-08T20:26:56.638Z,1.60
2022-12-08T20:30:01.675Z,1.60
2022-12-08T20:33:06.663Z,1.60
2022-12-08T20:36:18.167Z,1.60
2022-12-08T20:39:23.293Z,1.60
2022-12-08T20:42:28.400Z,1.60
2022-12-08T20:45:33.777Z,1.60
2022-12-08T20:48:39.176Z,1.60
2022-12-08T20:51:44.122Z,1.60
2022-12-08T20:54:49.371Z,1.60
2022-12-08T20:57:54.543Z,1.60
2022-12-08T21:00:59.404Z,1.60
2022-12-08T21:04:05.049Z,1.60
2022-12-08T21:07:10.398Z,1.60
2022-12-08T21:10:16.561Z,1.60
2022-12-08T21:13:21.517Z,1.60
2022-12-08T21:16:26.484Z,1.60
2022-12-08T21:19:35.352Z,1.60
2022-12-08T21:22:40.298Z,1.60
2022-12-08T21:25:46.955Z,1.60
2022-12-08T21:28:54.056Z,1.60
2022-12-08T21:32:00.162Z,1.60
2022-12-08T21:35:06.284Z,1.60
2022-12-08T21:38:11.243Z,1.60
2022-12-08T21:41:40.552Z,1.60
2022-12-08T21:44:45.120Z,1.60
2022-12-08T21:47:50.672Z,1.60
2022-12-08T21:50:56.210Z,1.60
2022-12-08T21:54:01.637Z,1.60
2022-12-08T21:57:06.538Z,1.60
2022-12-08T22:00:16.635Z,1.60
2022-12-08T22:03:21.331Z,1.60
2022-12-08T22:06:26.609Z,1.60
2022-12-08T22:09:31.468Z,1.60
2022-12-08T22:12:37.894Z,1.68
2022-12-08T22:15:42.671Z,1.70
2022-12-08T22:18:47.785Z,1.70
2022-12-08T22:21:54.303Z,1.70
2022-12-08T22:24:59.200Z,1.70
2022-12-08T22:28:04.701Z,1.70
2022-12-08T22:31:16.252Z,1.70
2022-12-08T22:34:21.123Z,1.70
2022-12-08T22:37:26.011Z,1.68
2022-12-08T22:40:30.569Z,1.64
2022-12-08T22:43:36.744Z,1.60
2022-12-08T22:46:41.382Z,1.60
2022-12-08T22:49:46.353Z,1.64
2022-12-08T22:52:52.571Z,1.70
2022-12-08T22:55:57.399Z,1.70
2022-12-08T22:59:02.020Z,1.70
2022-12-08T23:02:06.998Z,1.70
2022-12-08T23:05:13.030Z,1.72
2022-12-08T23:08:18.915Z,1.70
2022-12-08T23:11:27.176Z,1.70
2022-12-08T23:14:31.974Z,1.70
2022-12-08T23:17:36.674Z,1.70
2022-12-08T23:20:42.274Z,1.70
2022-12-08T23:23:48.246Z,1.70
2022-12-08T23:26:53.171Z,1.70
2022-12-08T23:29:58.160Z,1.70
2022-12-08T23:33:03.204Z,1.70
2022-12-08T23:36:09.529Z,1.70
2022-12-08T23:39:14.741Z,1.74
2022-12-08T23:42:19.618Z,1.76
2022-12-08T23:45:24.678Z,1.74
2022-12-08T23:48:29.690Z,1.78
2022-12-08T23:51:34.595Z,1.76
2022-12-08T23:54:39.614Z,1.74
2022-12-08T23:57:44.617Z,1.74
